This is the latest recevied weather packets stored in our database for station/object N9CQL. If no packets are shown the sender has not sent any weather packets the latest 10 day(s).
| Time | Temp. | Humidity | Pressure | Rain* | Wind** | Luminosity | Snow |
|---|---|---|---|---|---|---|---|
| 1777676523 | 7.78° C | 69% | 1016.5 hPa | 0 mm | - | 133 W/m² | - |
| 1777676220 | 7.78° C | 69% | 1016.8 hPa | 0 mm | - | 162 W/m² | - |
| 1777675916 | 8.33° C | 67% | 1016.7 hPa | 0 mm | - | 76 W/m² | - |
| 1777675613 | 8.89° C | 65% | 1016.9 hPa | 0 mm | - | 113 W/m² | - |
| 1777675310 | 8.33° C | 68% | 1016.6 hPa | 0 mm | - | 137 W/m² | - |
| 1777675006 | 7.78° C | 68% | 1016.7 hPa | 0 mm | - | 108 W/m² | - |
| 1777674703 | 7.78° C | 69% | 1016.8 hPa | 0 mm | - | 127 W/m² | - |
| 1777674399 | 8.33° C | 68% | 1016.8 hPa | 0 mm | - | 138 W/m² | - |
| 1777674097 | 8.33° C | 70% | 1016.6 hPa | 0 mm | - | 150 W/m² | - |
| 1777673793 | 8.33° C | 68% | 1016.5 hPa | 0 mm | - | 133 W/m² | - |
| 1777673490 | 8.33° C | 67% | 1016.5 hPa | 0 mm | - | 148 W/m² | - |
| 1777673188 | 8.33° C | 67% | 1016.6 hPa | 0 mm | - | 194 W/m² | - |
| 1777672885 | 8.33° C | 69% | 1016.7 hPa | 0 mm | - | 177 W/m² | - |
| 1777672582 | 10° C | 66% | 1016.5 hPa | 0 mm | - | 118 W/m² | - |
| 1777672277 | 10.56° C | 66% | 1016.8 hPa | 0 mm | - | 220 W/m² | - |
| 1777671972 | 10° C | 66% | 1016.6 hPa | 0 mm | - | 347 W/m² | - |
| 1777671668 | 9.44° C | 66% | 1016.7 hPa | 0 mm | - | 209 W/m² | - |
| 1777671365 | 9.44° C | 66% | 1016.7 hPa | 0 mm | - | 209 W/m² | - |
| 1777671061 | 10° C | 67% | 1016.7 hPa | 0 mm | - | 204 W/m² | - |
| 1777670757 | 9.44° C | 68% | 1016.5 hPa | 0 mm | - | 291 W/m² | - |
| 1777670454 | 8.89° C | 68% | 1016.5 hPa | 0 mm | - | 212 W/m² | - |
| 1777670151 | 8.33° C | 71% | 1016.6 hPa | 0 mm | - | 200 W/m² | - |
| 1777669849 | 9.44° C | 69% | 1016.4 hPa | 0 mm | - | 226 W/m² | - |
| 1777669545 | 9.44° C | 67% | 1016.4 hPa | 0 mm | - | 171 W/m² | - |
| 1777669242 | 9.44° C | 67% | 1016.5 hPa | 0 mm | - | 193 W/m² | - |
* Rain latest hour (hover to see other rain measurements)
** Current wind speed in m/s (hover to see current wind gust speed)